sensor_id;sensor_type;location;lat;lon;timestamp;temperature;humidity
37158;DHT22;23050;51.776;22.638;2023-06-26T00:02:09;14.20;99.90
37158;DHT22;23050;51.776;22.638;2023-06-26T00:04:34;14.20;99.90
37158;DHT22;23050;51.776;22.638;2023-06-26T00:07:03;14.30;99.90
37158;DHT22;23050;51.776;22.638;2023-06-26T00:09:28;14.20;99.90
37158;DHT22;23050;51.776;22.638;2023-06-26T00:11:54;14.20;99.90
37158;DHT22;23050;51.776;22.638;2023-06-26T00:14:19;14.20;99.90
37158;DHT22;23050;51.776;22.638;2023-06-26T00:16:46;14.20;99.90
37158;DHT22;23050;51.776;22.638;2023-06-26T00:19:11;14.10;99.90
37158;DHT22;23050;51.776;22.638;2023-06-26T00:21:37;14.00;99.90
37158;DHT22;23050;51.776;22.638;2023-06-26T00:24:02;14.00;99.90
37158;DHT22;23050;51.776;22.638;2023-06-26T00:26:28;14.00;99.90
37158;DHT22;23050;51.776;22.638;2023-06-26T00:28:53;14.00;99.90
37158;DHT22;23050;51.776;22.638;2023-06-26T00:31:19;14.00;99.90
37158;DHT22;23050;51.776;22.638;2023-06-26T00:33:44;13.90;99.90
37158;DHT22;23050;51.776;22.638;2023-06-26T00:36:10;13.90;99.90
37158;DHT22;23050;51.776;22.638;2023-06-26T00:38:35;13.90;99.90
37158;DHT22;23050;51.776;22.638;2023-06-26T00:41:01;13.90;99.90
37158;DHT22;23050;51.776;22.638;2023-06-26T00:43:26;13.90;99.90
37158;DHT22;23050;51.776;22.638;2023-06-26T00:45:51;13.80;99.90
37158;DHT22;23050;51.776;22.638;2023-06-26T00:48:17;13.80;99.90
37158;DHT22;23050;51.776;22.638;2023-06-26T00:50:43;13.80;99.90
37158;DHT22;23050;51.776;22.638;2023-06-26T00:53:11;13.80;99.90
37158;DHT22;23050;51.776;22.638;2023-06-26T00:55:37;13.70;99.90
37158;DHT22;23050;51.776;22.638;2023-06-26T00:58:02;13.70;99.90
37158;DHT22;23050;51.776;22.638;2023-06-26T01:00:28;13.60;99.90
37158;DHT22;23050;51.776;22.638;2023-06-26T01:02:53;13.60;99.90
37158;DHT22;23050;51.776;22.638;2023-06-26T01:05:24;13.60;99.90
37158;DHT22;23050;51.776;22.638;2023-06-26T01:07:50;13.60;99.90
37158;DHT22;23050;51.776;22.638;2023-06-26T01:10:16;13.60;99.90
37158;DHT22;23050;51.776;22.638;2023-06-26T01:12:41;13.60;99.90
37158;DHT22;23050;51.776;22.638;2023-06-26T01:15:07;13.60;99.90
37158;DHT22;23050;51.776;22.638;2023-06-26T01:17:33;13.60;99.90
37158;DHT22;23050;51.776;22.638;2023-06-26T01:19:59;13.50;99.90
37158;DHT22;23050;51.776;22.638;2023-06-26T01:22:33;13.50;99.90
37158;DHT22;23050;51.776;22.638;2023-06-26T01:25:07;13.40;99.90
37158;DHT22;23050;51.776;22.638;2023-06-26T01:27:36;13.40;99.90
37158;DHT22;23050;51.776;22.638;2023-06-26T01:30:03;13.30;99.90
37158;DHT22;23050;51.776;22.638;2023-06-26T01:32:30;13.30;99.90
37158;DHT22;23050;51.776;22.638;2023-06-26T01:34:57;13.30;99.90
37158;DHT22;23050;51.776;22.638;2023-06-26T01:37:22;13.30;99.90
37158;DHT22;23050;51.776;22.638;2023-06-26T01:39:48;13.30;99.90
37158;DHT22;23050;51.776;22.638;2023-06-26T01:42:13;13.10;99.90
37158;DHT22;23050;51.776;22.638;2023-06-26T01:44:41;13.10;99.90
37158;DHT22;23050;51.776;22.638;2023-06-26T01:47:08;13.20;99.90
37158;DHT22;23050;51.776;22.638;2023-06-26T01:52:09;13.10;99.90
37158;DHT22;23050;51.776;22.638;2023-06-26T01:54:39;13.00;99.90
37158;DHT22;23050;51.776;22.638;2023-06-26T01:57:04;13.00;99.90
37158;DHT22;23050;51.776;22.638;2023-06-26T01:59:32;13.00;99.90
37158;DHT22;23050;51.776;22.638;2023-06-26T02:02:00;13.00;99.90
37158;DHT22;23050;51.776;22.638;2023-06-26T02:04:25;13.00;99.90
37158;DHT22;23050;51.776;22.638;2023-06-26T02:06:51;13.00;99.90
37158;DHT22;23050;51.776;22.638;2023-06-26T02:09:16;13.00;99.90
37158;DHT22;23050;51.776;22.638;2023-06-26T02:11:42;12.90;99.90
37158;DHT22;23050;51.776;22.638;2023-06-26T02:14:08;12.80;99.90
37158;DHT22;23050;51.776;22.638;2023-06-26T02:16:34;12.80;99.90
37158;DHT22;23050;51.776;22.638;2023-06-26T02:18:59;12.80;99.90
37158;DHT22;23050;51.776;22.638;2023-06-26T02:21:25;12.70;99.90
37158;DHT22;23050;51.776;22.638;2023-06-26T02:23:51;12.70;99.90
37158;DHT22;23050;51.776;22.638;2023-06-26T02:26:16;12.70;99.90
37158;DHT22;23050;51.776;22.638;2023-06-26T02:28:41;12.70;99.90
37158;DHT22;23050;51.776;22.638;2023-06-26T02:31:07;12.60;99.90
37158;DHT22;23050;51.776;22.638;2023-06-26T02:33:32;12.60;99.90
37158;DHT22;23050;51.776;22.638;2023-06-26T02:35:58;12.60;99.90
37158;DHT22;23050;51.776;22.638;2023-06-26T02:38:23;12.60;99.90
37158;DHT22;23050;51.776;22.638;2023-06-26T02:40:49;12.60;99.90
37158;DHT22;23050;51.776;22.638;2023-06-26T02:43:14;12.60;99.90
37158;DHT22;23050;51.776;22.638;2023-06-26T02:45:40;12.60;99.90
37158;DHT22;23050;51.776;22.638;2023-06-26T02:48:05;12.50;99.90
37158;DHT22;23050;51.776;22.638;2023-06-26T02:50:31;12.60;99.90
37158;DHT22;23050;51.776;22.638;2023-06-26T02:52:56;12.60;99.90
37158;DHT22;23050;51.776;22.638;2023-06-26T02:55:21;12.50;99.90
37158;DHT22;23050;51.776;22.638;2023-06-26T02:57:47;12.60;99.90
37158;DHT22;23050;51.776;22.638;2023-06-26T03:00:12;12.60;99.90
37158;DHT22;23050;51.776;22.638;2023-06-26T03:02:38;12.60;99.90
37158;DHT22;23050;51.776;22.638;2023-06-26T03:05:04;12.70;99.90
37158;DHT22;23050;51.776;22.638;2023-06-26T03:07:29;12.70;99.90
37158;DHT22;23050;51.776;22.638;2023-06-26T03:09:55;12.80;99.90
37158;DHT22;23050;51.776;22.638;2023-06-26T03:12:20;12.90;99.90
37158;DHT22;23050;51.776;22.638;2023-06-26T03:14:46;12.90;99.90
37158;DHT22;23050;51.776;22.638;2023-06-26T03:17:11;12.90;99.90
37158;DHT22;23050;51.776;22.638;2023-06-26T03:19:37;12.90;99.90
37158;DHT22;23050;51.776;22.638;2023-06-26T03:22:02;13.00;99.90
37158;DHT22;23050;51.776;22.638;2023-06-26T03:24:30;13.10;99.90
37158;DHT22;23050;51.776;22.638;2023-06-26T03:26:56;13.20;99.90
37158;DHT22;23050;51.776;22.638;2023-06-26T03:29:21;13.30;99.90
37158;DHT22;23050;51.776;22.638;2023-06-26T03:31:47;13.30;99.90
37158;DHT22;23050;51.776;22.638;2023-06-26T03:34:12;13.40;99.90
37158;DHT22;23050;51.776;22.638;2023-06-26T03:36:38;13.50;99.90
37158;DHT22;23050;51.776;22.638;2023-06-26T03:39:03;13.60;99.90
37158;DHT22;23050;51.776;22.638;2023-06-26T03:41:29;13.70;99.90
37158;DHT22;23050;51.776;22.638;2023-06-26T03:43:55;13.80;99.90
37158;DHT22;23050;51.776;22.638;2023-06-26T03:46:22;13.90;99.90
37158;DHT22;23050;51.776;22.638;2023-06-26T03:48:47;14.00;99.90
37158;DHT22;23050;51.776;22.638;2023-06-26T03:51:13;14.20;99.90
37158;DHT22;23050;51.776;22.638;2023-06-26T03:53:39;14.30;99.90
37158;DHT22;23050;51.776;22.638;2023-06-26T03:56:04;14.40;99.90
37158;DHT22;23050;51.776;22.638;2023-06-26T03:58:30;14.40;99.90
37158;DHT22;23050;51.776;22.638;2023-06-26T04:00:55;14.60;99.90
37158;DHT22;23050;51.776;22.638;2023-06-26T04:03:21;14.70;99.90
37158;DHT22;23050;51.776;22.638;2023-06-26T04:05:46;14.90;99.90
37158;DHT22;23050;51.776;22.638;2023-06-26T04:08:12;15.00;99.90
37158;DHT22;23050;51.776;22.638;2023-06-26T04:10:37;15.20;99.90
37158;DHT22;23050;51.776;22.638;2023-06-26T04:13:02;15.30;99.90
37158;DHT22;23050;51.776;22.638;2023-06-26T04:15:28;15.40;99.90
37158;DHT22;23050;51.776;22.638;2023-06-26T04:17:53;15.60;99.90
37158;DHT22;23050;51.776;22.638;2023-06-26T04:20:19;15.80;99.90
37158;DHT22;23050;51.776;22.638;2023-06-26T04:22:44;15.90;99.90
37158;DHT22;23050;51.776;22.638;2023-06-26T04:25:10;16.00;99.90
37158;DHT22;23050;51.776;22.638;2023-06-26T04:27:38;16.10;99.90
37158;DHT22;23050;51.776;22.638;2023-06-26T04:30:04;16.30;99.90
37158;DHT22;23050;51.776;22.638;2023-06-26T04:32:30;16.30;99.90
37158;DHT22;23050;51.776;22.638;2023-06-26T04:34:55;16.50;99.90
37158;DHT22;23050;51.776;22.638;2023-06-26T04:37:21;16.60;99.90
37158;DHT22;23050;51.776;22.638;2023-06-26T04:39:47;16.70;99.90
37158;DHT22;23050;51.776;22.638;2023-06-26T04:42:12;16.90;99.90
37158;DHT22;23050;51.776;22.638;2023-06-26T04:44:38;17.00;99.90
37158;DHT22;23050;51.776;22.638;2023-06-26T04:47:03;17.10;99.90
37158;DHT22;23050;51.776;22.638;2023-06-26T04:49:29;17.30;99.90
37158;DHT22;23050;51.776;22.638;2023-06-26T04:51:55;17.40;99.90
37158;DHT22;23050;51.776;22.638;2023-06-26T04:54:21;17.60;99.90
37158;DHT22;23050;51.776;22.638;2023-06-26T04:56:46;17.70;99.90
37158;DHT22;23050;51.776;22.638;2023-06-26T04:59:12;17.80;99.90
37158;DHT22;23050;51.776;22.638;2023-06-26T05:01:38;17.90;99.90
37158;DHT22;23050;51.776;22.638;2023-06-26T05:04:05;18.10;99.90
37158;DHT22;23050;51.776;22.638;2023-06-26T05:06:30;18.20;99.90
37158;DHT22;23050;51.776;22.638;2023-06-26T05:08:56;18.30;99.90
37158;DHT22;23050;51.776;22.638;2023-06-26T05:11:21;18.50;99.90
37158;DHT22;23050;51.776;22.638;2023-06-26T05:13:48;18.60;99.90
37158;DHT22;23050;51.776;22.638;2023-06-26T05:16:14;18.80;99.90
37158;DHT22;23050;51.776;22.638;2023-06-26T05:18:39;19.00;99.90
37158;DHT22;23050;51.776;22.638;2023-06-26T05:21:05;19.30;99.90
37158;DHT22;23050;51.776;22.638;2023-06-26T05:23:31;19.60;99.90
37158;DHT22;23050;51.776;22.638;2023-06-26T05:25:57;19.90;99.90
37158;DHT22;23050;51.776;22.638;2023-06-26T05:28:25;20.10;98.90
37158;DHT22;23050;51.776;22.638;2023-06-26T05:30:53;20.20;98.80
37158;DHT22;23050;51.776;22.638;2023-06-26T05:33:18;20.50;98.40
37158;DHT22;23050;51.776;22.638;2023-06-26T05:35:45;20.90;95.00
37158;DHT22;23050;51.776;22.638;2023-06-26T05:38:10;21.60;94.30
37158;DHT22;23050;51.776;22.638;2023-06-26T05:40:36;22.30;69.40
37158;DHT22;23050;51.776;22.638;2023-06-26T05:43:02;22.70;49.30
37158;DHT22;23050;51.776;22.638;2023-06-26T05:45:27;24.00;33.70
37158;DHT22;23050;51.776;22.638;2023-06-26T05:47:53;25.20;20.10
37158;DHT22;23050;51.776;22.638;2023-06-26T05:50:18;26.20;8.70
37158;DHT22;23050;51.776;22.638;2023-06-26T05:52:45;27.50;1.00
37158;DHT22;23050;51.776;22.638;2023-06-26T05:55:11;28.70;1.00
37158;DHT22;23050;51.776;22.638;2023-06-26T05:57:36;28.80;1.00
37158;DHT22;23050;51.776;22.638;2023-06-26T06:00:03;28.90;1.00
37158;DHT22;23050;51.776;22.638;2023-06-26T06:02:31;28.70;1.00
37158;DHT22;23050;51.776;22.638;2023-06-26T06:04:56;28.70;1.00
37158;DHT22;23050;51.776;22.638;2023-06-26T06:07:21;28.10;1.00
37158;DHT22;23050;51.776;22.638;2023-06-26T06:09:47;28.30;1.00
37158;DHT22;23050;51.776;22.638;2023-06-26T06:12:12;27.50;1.00
37158;DHT22;23050;51.776;22.638;2023-06-26T06:14:38;27.30;1.00
37158;DHT22;23050;51.776;22.638;2023-06-26T06:17:03;27.40;1.00
37158;DHT22;23050;51.776;22.638;2023-06-26T06:19:29;28.10;1.00
37158;DHT22;23050;51.776;22.638;2023-06-26T06:21:54;28.10;1.00
37158;DHT22;23050;51.776;22.638;2023-06-26T06:24:20;29.10;1.00
37158;DHT22;23050;51.776;22.638;2023-06-26T06:26:45;29.30;1.00
37158;DHT22;23050;51.776;22.638;2023-06-26T06:29:11;30.00;1.00
37158;DHT22;23050;51.776;22.638;2023-06-26T06:31:36;30.50;1.00
37158;DHT22;23050;51.776;22.638;2023-06-26T06:34:02;30.20;1.00
37158;DHT22;23050;51.776;22.638;2023-06-26T06:36:27;31.00;1.00
37158;DHT22;23050;51.776;22.638;2023-06-26T06:38:53;31.60;1.00
37158;DHT22;23050;51.776;22.638;2023-06-26T06:41:19;31.50;1.00
37158;DHT22;23050;51.776;22.638;2023-06-26T06:43:45;30.80;1.00
37158;DHT22;23050;51.776;22.638;2023-06-26T06:46:10;31.00;1.00
37158;DHT22;23050;51.776;22.638;2023-06-26T06:48:36;31.20;1.00
37158;DHT22;23050;51.776;22.638;2023-06-26T06:51:01;31.10;1.00
37158;DHT22;23050;51.776;22.638;2023-06-26T06:53:27;31.70;1.00
37158;DHT22;23050;51.776;22.638;2023-06-26T06:55:52;31.80;1.00
37158;DHT22;23050;51.776;22.638;2023-06-26T06:58:18;31.80;1.00
37158;DHT22;23050;51.776;22.638;2023-06-26T07:00:47;31.60;1.00
37158;DHT22;23050;51.776;22.638;2023-06-26T07:03:13;32.00;1.00
37158;DHT22;23050;51.776;22.638;2023-06-26T07:05:41;32.00;1.00
37158;DHT22;23050;51.776;22.638;2023-06-26T07:08:06;32.30;1.00
37158;DHT22;23050;51.776;22.638;2023-06-26T07:10:32;32.50;1.00
37158;DHT22;23050;51.776;22.638;2023-06-26T07:12:57;33.50;1.00
37158;DHT22;23050;51.776;22.638;2023-06-26T07:15:23;33.50;1.00
37158;DHT22;23050;51.776;22.638;2023-06-26T07:17:48;33.60;1.00
37158;DHT22;23050;51.776;22.638;2023-06-26T07:20:13;33.00;1.00
37158;DHT22;23050;51.776;22.638;2023-06-26T07:22:42;33.00;1.00
37158;DHT22;23050;51.776;22.638;2023-06-26T07:25:08;33.90;1.00
37158;DHT22;23050;51.776;22.638;2023-06-26T07:27:36;35.60;1.00
37158;DHT22;23050;51.776;22.638;2023-06-26T07:30:02;35.70;1.00
37158;DHT22;23050;51.776;22.638;2023-06-26T07:32:28;34.20;1.00
37158;DHT22;23050;51.776;22.638;2023-06-26T07:34:53;34.20;1.00
37158;DHT22;23050;51.776;22.638;2023-06-26T07:37:19;34.70;1.00
37158;DHT22;23050;51.776;22.638;2023-06-26T07:39:44;35.20;1.00
37158;DHT22;23050;51.776;22.638;2023-06-26T07:42:10;34.70;1.00
37158;DHT22;23050;51.776;22.638;2023-06-26T07:44:35;34.50;1.00
37158;DHT22;23050;51.776;22.638;2023-06-26T07:47:01;34.00;1.00
37158;DHT22;23050;51.776;22.638;2023-06-26T07:49:27;34.30;1.00
37158;DHT22;23050;51.776;22.638;2023-06-26T07:51:52;34.80;1.00
37158;DHT22;23050;51.776;22.638;2023-06-26T07:54:18;34.80;1.00
37158;DHT22;23050;51.776;22.638;2023-06-26T07:59:21;35.50;1.00
37158;DHT22;23050;51.776;22.638;2023-06-26T08:01:48;37.30;1.00
37158;DHT22;23050;51.776;22.638;2023-06-26T08:04:14;38.00;1.00
37158;DHT22;23050;51.776;22.638;2023-06-26T08:06:39;38.30;1.00
37158;DHT22;23050;51.776;22.638;2023-06-26T08:09:08;39.20;1.00
37158;DHT22;23050;51.776;22.638;2023-06-26T08:11:33;40.10;1.00
37158;DHT22;23050;51.776;22.638;2023-06-26T08:13:59;40.80;1.00
37158;DHT22;23050;51.776;22.638;2023-06-26T08:16:25;40.00;1.00
37158;DHT22;23050;51.776;22.638;2023-06-26T08:18:50;39.60;1.00
37158;DHT22;23050;51.776;22.638;2023-06-26T08:21:16;38.50;1.00
37158;DHT22;23050;51.776;22.638;2023-06-26T08:23:41;39.40;1.00
37158;DHT22;23050;51.776;22.638;2023-06-26T08:26:07;40.50;1.00
37158;DHT22;23050;51.776;22.638;2023-06-26T08:28:32;41.10;1.00
37158;DHT22;23050;51.776;22.638;2023-06-26T08:30:58;39.10;1.00
37158;DHT22;23050;51.776;22.638;2023-06-26T08:33:24;39.00;1.00
37158;DHT22;23050;51.776;22.638;2023-06-26T08:35:50;39.80;1.00
37158;DHT22;23050;51.776;22.638;2023-06-26T08:38:15;38.20;1.00
37158;DHT22;23050;51.776;22.638;2023-06-26T08:40:41;37.70;1.00
37158;DHT22;23050;51.776;22.638;2023-06-26T08:43:06;38.70;1.00
37158;DHT22;23050;51.776;22.638;2023-06-26T08:45:32;39.30;1.00
37158;DHT22;23050;51.776;22.638;2023-06-26T08:47:59;40.20;1.00
37158;DHT22;23050;51.776;22.638;2023-06-26T08:50:25;40.80;1.00
37158;DHT22;23050;51.776;22.638;2023-06-26T08:52:53;41.20;1.00
37158;DHT22;23050;51.776;22.638;2023-06-26T08:55:22;39.80;1.00
37158;DHT22;23050;51.776;22.638;2023-06-26T08:57:50;38.60;1.00
37158;DHT22;23050;51.776;22.638;2023-06-26T09:00:16;38.30;1.00
37158;DHT22;23050;51.776;22.638;2023-06-26T09:02:41;38.50;1.00
37158;DHT22;23050;51.776;22.638;2023-06-26T09:05:07;38.10;1.00
37158;DHT22;23050;51.776;22.638;2023-06-26T09:07:33;38.60;1.00
37158;DHT22;23050;51.776;22.638;2023-06-26T09:09:58;39.10;1.00
37158;DHT22;23050;51.776;22.638;2023-06-26T09:12:26;38.10;1.00
37158;DHT22;23050;51.776;22.638;2023-06-26T09:14:52;36.90;1.00
37158;DHT22;23050;51.776;22.638;2023-06-26T09:17:21;36.20;1.00
37158;DHT22;23050;51.776;22.638;2023-06-26T09:19:49;35.70;1.00
37158;DHT22;23050;51.776;22.638;2023-06-26T09:22:14;35.90;1.00
37158;DHT22;23050;51.776;22.638;2023-06-26T09:24:43;34.90;1.00
37158;DHT22;23050;51.776;22.638;2023-06-26T09:27:09;34.80;1.00
37158;DHT22;23050;51.776;22.638;2023-06-26T09:29:34;34.30;1.00
37158;DHT22;23050;51.776;22.638;2023-06-26T09:32:00;33.30;1.00
37158;DHT22;23050;51.776;22.638;2023-06-26T09:34:32;32.90;1.00
37158;DHT22;23050;51.776;22.638;2023-06-26T09:36:58;32.70;1.00
37158;DHT22;23050;51.776;22.638;2023-06-26T09:39:23;32.30;1.00
37158;DHT22;23050;51.776;22.638;2023-06-26T09:41:49;31.00;1.00
37158;DHT22;23050;51.776;22.638;2023-06-26T09:44:15;31.60;1.00
37158;DHT22;23050;51.776;22.638;2023-06-26T09:46:41;33.10;1.00
37158;DHT22;23050;51.776;22.638;2023-06-26T09:49:10;34.50;1.00
37158;DHT22;23050;51.776;22.638;2023-06-26T09:51:39;35.70;1.00
37158;DHT22;23050;51.776;22.638;2023-06-26T09:54:05;36.60;1.00
37158;DHT22;23050;51.776;22.638;2023-06-26T09:56:31;37.20;1.00
37158;DHT22;23050;51.776;22.638;2023-06-26T09:58:57;38.20;1.00
37158;DHT22;23050;51.776;22.638;2023-06-26T10:01:25;38.30;1.00
37158;DHT22;23050;51.776;22.638;2023-06-26T10:03:51;37.50;1.00
37158;DHT22;23050;51.776;22.638;2023-06-26T10:06:22;36.60;1.00
37158;DHT22;23050;51.776;22.638;2023-06-26T10:08:49;35.80;1.00
37158;DHT22;23050;51.776;22.638;2023-06-26T10:11:16;35.00;1.00
37158;DHT22;23050;51.776;22.638;2023-06-26T10:13:42;34.80;1.00
37158;DHT22;23050;51.776;22.638;2023-06-26T10:16:11;34.20;1.00
37158;DHT22;23050;51.776;22.638;2023-06-26T10:18:36;33.00;1.00
37158;DHT22;23050;51.776;22.638;2023-06-26T10:21:03;32.30;1.00
37158;DHT22;23050;51.776;22.638;2023-06-26T10:23:30;32.20;1.00
37158;DHT22;23050;51.776;22.638;2023-06-26T10:25:56;32.00;1.00
37158;DHT22;23050;51.776;22.638;2023-06-26T10:28:23;31.60;1.00
37158;DHT22;23050;51.776;22.638;2023-06-26T10:30:49;32.00;1.00
37158;DHT22;23050;51.776;22.638;2023-06-26T10:33:15;31.90;1.00
37158;DHT22;23050;51.776;22.638;2023-06-26T10:35:44;32.90;1.00
37158;DHT22;23050;51.776;22.638;2023-06-26T10:38:10;33.00;1.00
37158;DHT22;23050;51.776;22.638;2023-06-26T10:40:45;33.30;1.00
37158;DHT22;23050;51.776;22.638;2023-06-26T10:43:12;33.80;1.00
37158;DHT22;23050;51.776;22.638;2023-06-26T10:45:43;33.40;1.00
37158;DHT22;23050;51.776;22.638;2023-06-26T10:48:08;33.20;1.00
37158;DHT22;23050;51.776;22.638;2023-06-26T10:50:34;32.30;1.00
37158;DHT22;23050;51.776;22.638;2023-06-26T10:55:48;32.60;1.00
37158;DHT22;23050;51.776;22.638;2023-06-26T10:58:27;32.80;1.00
37158;DHT22;23050;51.776;22.638;2023-06-26T11:01:13;33.30;1.00
37158;DHT22;23050;51.776;22.638;2023-06-26T11:03:39;33.00;1.00
37158;DHT22;23050;51.776;22.638;2023-06-26T11:06:09;32.00;1.00
37158;DHT22;23050;51.776;22.638;2023-06-26T11:09:35;32.10;1.00
37158;DHT22;23050;51.776;22.638;2023-06-26T11:14:13;32.10;1.00
37158;DHT22;23050;51.776;22.638;2023-06-26T11:16:42;31.60;1.00
37158;DHT22;23050;51.776;22.638;2023-06-26T11:19:08;31.40;1.00
37158;DHT22;23050;51.776;22.638;2023-06-26T11:21:34;31.30;1.00
37158;DHT22;23050;51.776;22.638;2023-06-26T11:23:59;31.10;1.00
37158;DHT22;23050;51.776;22.638;2023-06-26T11:26:27;30.80;1.00
37158;DHT22;23050;51.776;22.638;2023-06-26T11:28:56;30.30;1.00
37158;DHT22;23050;51.776;22.638;2023-06-26T11:31:28;30.30;1.00
37158;DHT22;23050;51.776;22.638;2023-06-26T11:33:57;30.90;1.00
37158;DHT22;23050;51.776;22.638;2023-06-26T11:36:27;31.70;1.00
37158;DHT22;23050;51.776;22.638;2023-06-26T11:38:53;32.40;1.00
37158;DHT22;23050;51.776;22.638;2023-06-26T11:41:20;33.20;1.00
37158;DHT22;23050;51.776;22.638;2023-06-26T11:43:45;33.60;1.00
37158;DHT22;23050;51.776;22.638;2023-06-26T11:46:11;33.40;1.00
37158;DHT22;23050;51.776;22.638;2023-06-26T11:48:37;33.40;1.00
37158;DHT22;23050;51.776;22.638;2023-06-26T11:51:05;32.70;1.00
37158;DHT22;23050;51.776;22.638;2023-06-26T11:53:31;32.10;1.00
37158;DHT22;23050;51.776;22.638;2023-06-26T11:55:56;32.00;1.00
37158;DHT22;23050;51.776;22.638;2023-06-26T11:58:22;31.70;1.00
37158;DHT22;23050;51.776;22.638;2023-06-26T12:00:48;31.70;1.00
37158;DHT22;23050;51.776;22.638;2023-06-26T12:03:14;32.00;1.00
37158;DHT22;23050;51.776;22.638;2023-06-26T12:05:39;32.50;1.00
37158;DHT22;23050;51.776;22.638;2023-06-26T12:08:06;33.20;1.00
37158;DHT22;23050;51.776;22.638;2023-06-26T12:10:32;33.00;1.00
37158;DHT22;23050;51.776;22.638;2023-06-26T12:12:58;32.60;1.00
37158;DHT22;23050;51.776;22.638;2023-06-26T12:15:26;32.40;1.00
37158;DHT22;23050;51.776;22.638;2023-06-26T12:17:53;32.60;1.00
37158;DHT22;23050;51.776;22.638;2023-06-26T12:20:19;32.90;1.00
37158;DHT22;23050;51.776;22.638;2023-06-26T12:22:46;32.30;1.00
37158;DHT22;23050;51.776;22.638;2023-06-26T12:25:13;32.60;1.00
37158;DHT22;23050;51.776;22.638;2023-06-26T12:27:38;32.70;1.00
37158;DHT22;23050;51.776;22.638;2023-06-26T12:30:04;32.00;1.00
37158;DHT22;23050;51.776;22.638;2023-06-26T12:32:30;31.70;1.00
37158;DHT22;23050;51.776;22.638;2023-06-26T12:34:56;32.20;1.00
37158;DHT22;23050;51.776;22.638;2023-06-26T12:37:22;32.80;1.00
37158;DHT22;23050;51.776;22.638;2023-06-26T12:39:51;33.50;1.00
37158;DHT22;23050;51.776;22.638;2023-06-26T12:42:21;34.00;1.00
37158;DHT22;23050;51.776;22.638;2023-06-26T12:44:47;34.50;1.00
37158;DHT22;23050;51.776;22.638;2023-06-26T12:47:13;34.70;1.00
37158;DHT22;23050;51.776;22.638;2023-06-26T12:49:40;34.00;1.00
37158;DHT22;23050;51.776;22.638;2023-06-26T12:52:10;33.50;1.00
37158;DHT22;23050;51.776;22.638;2023-06-26T12:54:37;32.60;1.00
37158;DHT22;23050;51.776;22.638;2023-06-26T12:57:03;32.30;1.00
37158;DHT22;23050;51.776;22.638;2023-06-26T12:59:29;32.80;1.00
37158;DHT22;23050;51.776;22.638;2023-06-26T13:01:55;33.00;1.00
37158;DHT22;23050;51.776;22.638;2023-06-26T13:04:20;33.40;1.00
37158;DHT22;23050;51.776;22.638;2023-06-26T13:06:46;34.00;1.00
37158;DHT22;23050;51.776;22.638;2023-06-26T13:09:11;34.40;1.00
37158;DHT22;23050;51.776;22.638;2023-06-26T13:11:37;34.40;1.00
37158;DHT22;23050;51.776;22.638;2023-06-26T13:14:03;34.80;1.00
37158;DHT22;23050;51.776;22.638;2023-06-26T13:16:29;34.00;1.00
37158;DHT22;23050;51.776;22.638;2023-06-26T13:18:54;33.70;1.00
37158;DHT22;23050;51.776;22.638;2023-06-26T13:21:23;34.10;1.00
37158;DHT22;23050;51.776;22.638;2023-06-26T13:23:48;34.80;1.00
37158;DHT22;23050;51.776;22.638;2023-06-26T13:26:14;34.30;1.00
37158;DHT22;23050;51.776;22.638;2023-06-26T13:28:39;33.80;1.00
37158;DHT22;23050;51.776;22.638;2023-06-26T13:31:05;33.40;1.00
37158;DHT22;23050;51.776;22.638;2023-06-26T13:33:31;32.60;1.00
37158;DHT22;23050;51.776;22.638;2023-06-26T13:35:56;32.10;1.00
37158;DHT22;23050;51.776;22.638;2023-06-26T13:38:22;31.80;1.00
37158;DHT22;23050;51.776;22.638;2023-06-26T13:40:51;31.70;1.00
37158;DHT22;23050;51.776;22.638;2023-06-26T13:43:17;32.00;1.00
37158;DHT22;23050;51.776;22.638;2023-06-26T13:45:42;32.60;1.00
37158;DHT22;23050;51.776;22.638;2023-06-26T13:48:08;32.60;1.00
37158;DHT22;23050;51.776;22.638;2023-06-26T13:50:33;32.30;1.00
37158;DHT22;23050;51.776;22.638;2023-06-26T13:52:58;31.90;1.00
37158;DHT22;23050;51.776;22.638;2023-06-26T13:55:24;31.70;1.00
37158;DHT22;23050;51.776;22.638;2023-06-26T13:57:49;32.30;1.00
37158;DHT22;23050;51.776;22.638;2023-06-26T14:00:15;33.10;1.00
37158;DHT22;23050;51.776;22.638;2023-06-26T14:02:45;33.60;1.00
37158;DHT22;23050;51.776;22.638;2023-06-26T14:05:11;33.50;1.00
37158;DHT22;23050;51.776;22.638;2023-06-26T14:07:36;33.20;1.00
37158;DHT22;23050;51.776;22.638;2023-06-26T14:10:03;33.00;1.00
37158;DHT22;23050;51.776;22.638;2023-06-26T14:12:29;32.70;1.00
37158;DHT22;23050;51.776;22.638;2023-06-26T14:14:54;32.60;1.00
37158;DHT22;23050;51.776;22.638;2023-06-26T14:17:20;32.10;1.00
37158;DHT22;23050;51.776;22.638;2023-06-26T14:19:45;31.70;1.00
37158;DHT22;23050;51.776;22.638;2023-06-26T14:22:11;31.40;1.00
37158;DHT22;23050;51.776;22.638;2023-06-26T14:24:37;31.00;1.00
37158;DHT22;23050;51.776;22.638;2023-06-26T14:27:02;30.70;1.00
37158;DHT22;23050;51.776;22.638;2023-06-26T14:29:28;30.40;1.00
37158;DHT22;23050;51.776;22.638;2023-06-26T14:31:53;30.10;1.00
37158;DHT22;23050;51.776;22.638;2023-06-26T14:34:19;30.00;1.00
37158;DHT22;23050;51.776;22.638;2023-06-26T14:36:45;29.70;1.00
37158;DHT22;23050;51.776;22.638;2023-06-26T14:39:10;29.60;1.00
37158;DHT22;23050;51.776;22.638;2023-06-26T14:41:36;29.50;1.00
37158;DHT22;23050;51.776;22.638;2023-06-26T14:44:01;29.50;1.00
37158;DHT22;23050;51.776;22.638;2023-06-26T14:46:26;29.50;1.00
37158;DHT22;23050;51.776;22.638;2023-06-26T14:48:52;29.60;1.00
37158;DHT22;23050;51.776;22.638;2023-06-26T14:51:17;29.70;1.00
37158;DHT22;23050;51.776;22.638;2023-06-26T14:53:43;29.70;1.00
37158;DHT22;23050;51.776;22.638;2023-06-26T14:56:08;29.80;1.00
37158;DHT22;23050;51.776;22.638;2023-06-26T14:58:34;30.00;1.00
37158;DHT22;23050;51.776;22.638;2023-06-26T15:00:59;30.80;1.00
37158;DHT22;23050;51.776;22.638;2023-06-26T15:03:25;31.30;1.00
37158;DHT22;23050;51.776;22.638;2023-06-26T15:05:50;31.90;1.00
37158;DHT22;23050;51.776;22.638;2023-06-26T15:08:16;32.10;1.00
37158;DHT22;23050;51.776;22.638;2023-06-26T15:10:41;32.60;1.00
37158;DHT22;23050;51.776;22.638;2023-06-26T15:13:06;32.90;1.00
37158;DHT22;23050;51.776;22.638;2023-06-26T15:15:32;32.50;1.00
37158;DHT22;23050;51.776;22.638;2023-06-26T15:17:58;32.70;1.00
37158;DHT22;23050;51.776;22.638;2023-06-26T15:20:24;32.50;1.00
37158;DHT22;23050;51.776;22.638;2023-06-26T15:22:50;32.70;1.00
37158;DHT22;23050;51.776;22.638;2023-06-26T15:25:15;32.50;1.00
37158;DHT22;23050;51.776;22.638;2023-06-26T15:27:41;32.30;1.00
37158;DHT22;23050;51.776;22.638;2023-06-26T15:30:06;32.00;1.00